Ana Sayfa
METAR-TAF:

METAR-TAF

Havaalanları :

N'Djamena, Çad

Enlem: 12-08N, Boylam: 015-02E, yükseklik: 295 m

Güncel hava durumu gözlemi

Rapor saat 13:00 UTC de 22 saat ve 49 dakika önce yapıldı.
Rüzgar güneydan 12 kt, güney ve batı arasında değişken
Sıcaklık 43°C
Nem 16%
Basınç 1005 hPa
Görüş mesafesi 10 km veya daha fazla
4000 ft yükseklikte az bulutlu

METAR: FTTJ 231300Z 19012KT 190V260 9999 FEW040 43/12 Q1005 NOSIG

Saat: 12:49 (11:49 UTC)

Tahmin

Rapor saat 11:00 UTC de 49 dakika önce yapıldı.
Ayın 23'si saat 12 UTC'den ayın 24'si saat 18 UTC'ye kadar geçerli Tahmin
Rüzgar güney/güneybatıdan 6 kt
Görüş mesafesi: 6000 m
Geçici
ayın 23'si saat 15 UTC'den ayın 23'si saat 19 UTC'ye kadar
Görüş mesafesi: 4000 m
Toz Pusu
Olasılık 30% :
Geçici
ayın 23'si saat 22 UTC'den ayın 24'si saat 08 UTC'ye kadar
Görüş mesafesi: 2500 m
yaygın toz

TAF: FTTJ 231100Z 2312/2418 21006KT 6000 NSC TEMPO 2315/2319 4000 HZ PROB30 TEMPO 2322/2408 2500 DU

4.000'den fazla havaalanı için hava durumu gözlemleri ve tahminleri (METAR ve TAF raporları).

Kullanılabilir istasyonlar harita üzerinde sarı ve kırmızı noktalarla gösterilir.

İstasyonun adını görmek için fareyi noktanın üzerinde gezdirin.

Sonrasında hava gözlem ve tahminlerini görmek için tıklayın.

Haritayı değiştirmek için: yaklaştırmak için siyah artı işaretli yeşil düğmeye ve uzaklaştırmak için de eksi işaretli düğmeye hızla tıklayın; bitişik haritalar için yeşil okları kullanın.


METAR-TAF: